sensor_id;sensor_type;location;lat;lon;timestamp;pressure;altitude;pressure_sealevel;temperature;humidity
49585;BME280;35491;49.142;9.210;2022-08-19T20:42:01;99582.09;;;22.64;65.01
49585;BME280;35491;49.142;9.210;2022-08-19T20:43:08;99579.16;;;22.66;64.92
49585;BME280;35491;49.142;9.210;2022-08-19T20:44:10;99583.03;;;22.70;64.70
49585;BME280;35491;49.142;9.210;2022-08-19T20:45:14;99590.75;;;22.73;64.66
49585;BME280;35491;49.142;9.210;2022-08-19T20:46:16;99590.50;;;22.63;65.11
49585;BME280;35491;49.142;9.210;2022-08-19T20:47:20;99586.47;;;22.53;65.49
49585;BME280;35491;49.142;9.210;2022-08-19T20:48:22;99590.84;;;22.54;65.06
49585;BME280;35491;49.142;9.210;2022-08-19T20:49:26;99586.00;;;22.56;65.24
49585;BME280;35491;49.142;9.210;2022-08-19T20:50:30;99591.44;;;22.56;65.29
49585;BME280;35491;49.142;9.210;2022-08-19T20:51:31;99582.78;;;22.48;65.31
49585;BME280;35491;49.142;9.210;2022-08-19T20:52:35;99583.50;;;22.55;65.18
49585;BME280;35491;49.142;9.210;2022-08-19T20:53:38;99579.59;;;22.63;64.92
49585;BME280;35491;49.142;9.210;2022-08-19T20:54:42;99582.94;;;22.65;64.64
49585;BME280;35491;49.142;9.210;2022-08-19T20:55:44;99587.88;;;22.68;64.77
49585;BME280;35491;49.142;9.210;2022-08-19T20:56:49;99589.34;;;22.70;64.48
49585;BME280;35491;49.142;9.210;2022-08-19T20:57:53;99590.59;;;22.68;64.74
49585;BME280;35491;49.142;9.210;2022-08-19T20:58:58;99587.19;;;22.72;64.62
49585;BME280;35491;49.142;9.210;2022-08-19T21:00:04;99594.53;;;22.72;64.43
49585;BME280;35491;49.142;9.210;2022-08-19T21:01:08;99588.03;;;22.73;64.15
49585;BME280;35491;49.142;9.210;2022-08-19T21:02:12;99588.28;;;22.71;64.21
49585;BME280;35491;49.142;9.210;2022-08-19T21:03:15;99591.22;;;22.70;64.32
49585;BME280;35491;49.142;9.210;2022-08-19T21:04:19;99589.19;;;22.77;64.01
49585;BME280;35491;49.142;9.210;2022-08-19T21:05:23;99593.72;;;22.83;64.11
49585;BME280;35491;49.142;9.210;2022-08-19T21:06:25;99592.06;;;22.82;63.81
49585;BME280;35491;49.142;9.210;2022-08-19T21:07:29;99596.91;;;22.80;64.16
49585;BME280;35491;49.142;9.210;2022-08-19T21:08:30;99594.78;;;22.82;63.87
49585;BME280;35491;49.142;9.210;2022-08-19T21:09:35;99588.03;;;22.85;63.69
49585;BME280;35491;49.142;9.210;2022-08-19T21:10:36;99586.16;;;22.85;63.70
49585;BME280;35491;49.142;9.210;2022-08-19T21:11:40;99579.38;;;22.88;63.43
49585;BME280;35491;49.142;9.210;2022-08-19T21:12:44;99591.69;;;22.90;63.29
49585;BME280;35491;49.142;9.210;2022-08-19T21:13:48;99587.56;;;22.88;63.63
49585;BME280;35491;49.142;9.210;2022-08-19T21:14:52;99586.72;;;22.87;63.36
49585;BME280;35491;49.142;9.210;2022-08-19T21:15:54;99592.16;;;22.87;63.63
49585;BME280;35491;49.142;9.210;2022-08-19T21:16:58;99575.34;;;22.90;63.42
49585;BME280;35491;49.142;9.210;2022-08-19T21:17:59;99583.88;;;22.94;63.21
49585;BME280;35491;49.142;9.210;2022-08-19T21:19:03;99593.34;;;22.92;63.24
49585;BME280;35491;49.142;9.210;2022-08-19T21:20:05;99589.56;;;22.93;63.09
49585;BME280;35491;49.142;9.210;2022-08-19T21:21:09;99594.53;;;22.96;63.24
49585;BME280;35491;49.142;9.210;2022-08-19T21:22:10;99592.91;;;22.95;63.14
49585;BME280;35491;49.142;9.210;2022-08-19T21:23:15;99595.38;;;22.96;62.83
49585;BME280;35491;49.142;9.210;2022-08-19T21:24:17;99594.06;;;22.99;62.88
49585;BME280;35491;49.142;9.210;2022-08-19T21:25:21;99587.78;;;22.98;63.11
49585;BME280;35491;49.142;9.210;2022-08-19T21:26:22;99591.59;;;22.97;63.10
49585;BME280;35491;49.142;9.210;2022-08-19T21:27:26;99591.34;;;22.99;62.90
49585;BME280;35491;49.142;9.210;2022-08-19T21:28:28;99597.03;;;22.97;62.88
49585;BME280;35491;49.142;9.210;2022-08-19T21:29:34;99596.19;;;22.97;62.61
49585;BME280;35491;49.142;9.210;2022-08-19T21:30:38;99597.75;;;22.93;62.64
49585;BME280;35491;49.142;9.210;2022-08-19T21:31:42;99597.16;;;22.90;63.37
49585;BME280;35491;49.142;9.210;2022-08-19T21:32:47;99599.88;;;22.90;63.33
49585;BME280;35491;49.142;9.210;2022-08-19T21:33:48;99595.47;;;22.89;63.40
49585;BME280;35491;49.142;9.210;2022-08-19T21:34:52;99603.41;;;22.91;63.21
49585;BME280;35491;49.142;9.210;2022-08-19T21:35:53;99597.97;;;22.91;63.43
49585;BME280;35491;49.142;9.210;2022-08-19T21:36:58;99601.53;;;22.92;63.55
49585;BME280;35491;49.142;9.210;2022-08-19T21:37:59;99605.06;;;22.92;63.47
49585;BME280;35491;49.142;9.210;2022-08-19T21:39:03;99604.00;;;22.93;63.57
49585;BME280;35491;49.142;9.210;2022-08-19T21:40:05;99607.56;;;22.94;63.92
49585;BME280;35491;49.142;9.210;2022-08-19T21:41:09;99601.88;;;22.95;63.50
49585;BME280;35491;49.142;9.210;2022-08-19T21:42:11;99608.16;;;22.96;63.66
49585;BME280;35491;49.142;9.210;2022-08-19T21:43:15;99604.34;;;22.97;63.67
49585;BME280;35491;49.142;9.210;2022-08-19T21:44:17;99606.28;;;22.96;64.01
49585;BME280;35491;49.142;9.210;2022-08-19T21:45:23;99614.31;;;22.91;64.72
49585;BME280;35491;49.142;9.210;2022-08-19T21:46:25;99614.56;;;22.89;64.36
49585;BME280;35491;49.142;9.210;2022-08-19T21:47:29;99611.03;;;22.89;64.35
49585;BME280;35491;49.142;9.210;2022-08-19T21:48:30;99613.50;;;22.90;64.37
49585;BME280;35491;49.142;9.210;2022-08-19T21:49:34;99612.44;;;22.92;63.96
49585;BME280;35491;49.142;9.210;2022-08-19T21:50:35;99618.94;;;22.90;64.23
49585;BME280;35491;49.142;9.210;2022-08-19T21:51:39;99615.16;;;22.92;63.97
49585;BME280;35491;49.142;9.210;2022-08-19T21:52:40;99612.44;;;22.92;64.35
49585;BME280;35491;49.142;9.210;2022-08-19T21:53:44;99614.09;;;22.93;64.33
49585;BME280;35491;49.142;9.210;2022-08-19T21:54:46;99622.88;;;22.95;63.78
49585;BME280;35491;49.142;9.210;2022-08-19T21:55:50;99615.75;;;22.94;64.14
49585;BME280;35491;49.142;9.210;2022-08-19T21:56:51;99624.41;;;22.90;64.46
49585;BME280;35491;49.142;9.210;2022-08-19T21:57:55;99621.91;;;22.89;64.76
49585;BME280;35491;49.142;9.210;2022-08-19T21:59:00;99623.78;;;22.88;64.27
49585;BME280;35491;49.142;9.210;2022-08-19T22:00:11;99625.47;;;22.89;64.34
49585;BME280;35491;49.142;9.210;2022-08-19T22:01:15;99628.44;;;22.88;64.24
49585;BME280;35491;49.142;9.210;2022-08-19T22:02:19;99624.28;;;22.85;64.54
49585;BME280;35491;49.142;9.210;2022-08-19T22:03:20;99634.59;;;22.83;64.67
49585;BME280;35491;49.142;9.210;2022-08-19T22:04:25;99631.25;;;22.81;64.29
49585;BME280;35491;49.142;9.210;2022-08-19T22:05:27;99626.88;;;22.80;64.56
49585;BME280;35491;49.142;9.210;2022-08-19T22:06:32;99626.88;;;22.80;64.41
49585;BME280;35491;49.142;9.210;2022-08-19T22:07:34;99621.19;;;22.82;64.47
49585;BME280;35491;49.142;9.210;2022-08-19T22:08:38;99627.47;;;22.82;64.39
49585;BME280;35491;49.142;9.210;2022-08-19T22:09:41;99625.47;;;22.78;64.48
49585;BME280;35491;49.142;9.210;2022-08-19T22:10:46;99630.31;;;22.75;64.69
49585;BME280;35491;49.142;9.210;2022-08-19T22:11:48;99631.16;;;22.76;64.75
49585;BME280;35491;49.142;9.210;2022-08-19T22:12:53;99623.78;;;22.77;64.67
49585;BME280;35491;49.142;9.210;2022-08-19T22:13:56;99622.97;;;22.76;64.56
49585;BME280;35491;49.142;9.210;2022-08-19T22:15:00;99618.59;;;22.75;64.50
49585;BME280;35491;49.142;9.210;2022-08-19T22:16:01;99618.34;;;22.65;64.70
49585;BME280;35491;49.142;9.210;2022-08-19T22:17:08;99622.84;;;22.59;65.17
49585;BME280;35491;49.142;9.210;2022-08-19T22:18:09;99622.94;;;22.52;65.56
49585;BME280;35491;49.142;9.210;2022-08-19T22:19:13;99628.38;;;22.52;65.63
49585;BME280;35491;49.142;9.210;2022-08-19T22:20:15;99628.63;;;22.51;65.71
49585;BME280;35491;49.142;9.210;2022-08-19T22:21:20;99630.50;;;22.50;65.29
49585;BME280;35491;49.142;9.210;2022-08-19T22:22:22;99633.81;;;22.52;65.38
49585;BME280;35491;49.142;9.210;2022-08-19T22:23:27;99629.59;;;22.56;65.29
49585;BME280;35491;49.142;9.210;2022-08-19T22:24:31;99628.53;;;22.57;64.94
49585;BME280;35491;49.142;9.210;2022-08-19T22:25:32;99627.91;;;22.55;65.20
49585;BME280;35491;49.142;9.210;2022-08-19T22:26:37;99628.53;;;22.57;65.01
49585;BME280;35491;49.142;9.210;2022-08-19T22:27:38;99629.59;;;22.56;64.91
49585;BME280;35491;49.142;9.210;2022-08-19T22:28:42;99628.38;;;22.52;65.31
49585;BME280;35491;49.142;9.210;2022-08-19T22:29:44;99628.84;;;22.49;65.05
49585;BME280;35491;49.142;9.210;2022-08-19T22:30:48;99625.75;;;22.46;65.29
49585;BME280;35491;49.142;9.210;2022-08-19T22:31:49;99629.78;;;22.43;65.46
49585;BME280;35491;49.142;9.210;2022-08-19T22:32:57;99634.00;;;22.39;65.47
49585;BME280;35491;49.142;9.210;2022-08-19T22:34:00;99637.03;;;22.31;66.03
49585;BME280;35491;49.142;9.210;2022-08-19T22:35:05;99632.53;;;22.24;66.17
49585;BME280;35491;49.142;9.210;2022-08-19T22:36:09;99643.78;;;22.28;66.03
49585;BME280;35491;49.142;9.210;2022-08-19T22:37:14;99642.72;;;22.29;66.23
49585;BME280;35491;49.142;9.210;2022-08-19T22:38:15;99641.44;;;22.32;66.07
49585;BME280;35491;49.142;9.210;2022-08-19T22:39:19;99644.16;;;22.32;66.14
49585;BME280;35491;49.142;9.210;2022-08-19T22:40:20;99647.81;;;22.25;66.04
49585;BME280;35491;49.142;9.210;2022-08-19T22:41:24;99645.34;;;22.24;66.29
49585;BME280;35491;49.142;9.210;2022-08-19T22:42:28;99638.69;;;22.20;66.43
49585;BME280;35491;49.142;9.210;2022-08-19T22:43:32;99645.78;;;22.21;66.18
49585;BME280;35491;49.142;9.210;2022-08-19T22:44:33;99645.44;;;22.17;66.36
49585;BME280;35491;49.142;9.210;2022-08-19T22:45:38;99644.44;;;22.11;66.76
49585;BME280;35491;49.142;9.210;2022-08-19T22:46:39;99645.75;;;22.09;67.16
49585;BME280;35491;49.142;9.210;2022-08-19T22:47:43;99651.31;;;22.14;66.92
49585;BME280;35491;49.142;9.210;2022-08-19T22:48:47;99646.25;;;22.18;66.60
49585;BME280;35491;49.142;9.210;2022-08-19T22:49:51;99646.41;;;22.23;66.71
49585;BME280;35491;49.142;9.210;2022-08-19T22:50:53;99642.63;;;22.24;66.50
49585;BME280;35491;49.142;9.210;2022-08-19T22:52:10;99640.94;;;22.23;66.88
49585;BME280;35491;49.142;9.210;2022-08-19T22:53:20;99639.38;;;22.15;66.80
49585;BME280;35491;49.142;9.210;2022-08-19T22:54:21;99648.59;;;22.14;67.17
49585;BME280;35491;49.142;9.210;2022-08-19T22:55:22;99655.69;;;22.15;66.71
49585;BME280;35491;49.142;9.210;2022-08-19T22:56:27;99651.94;;;22.16;66.94
49585;BME280;35491;49.142;9.210;2022-08-19T22:57:28;99653.59;;;22.17;66.68
49585;BME280;35491;49.142;9.210;2022-08-19T22:58:32;99653.34;;;22.19;66.58
49585;BME280;35491;49.142;9.210;2022-08-19T22:59:34;99651.47;;;22.19;66.66
49585;BME280;35491;49.142;9.210;2022-08-19T23:00:38;99656.91;;;22.19;66.73
49585;BME280;35491;49.142;9.210;2022-08-19T23:01:40;99658.34;;;22.22;66.67
49585;BME280;35491;49.142;9.210;2022-08-19T23:02:44;99662.72;;;22.23;66.83
49585;BME280;35491;49.142;9.210;2022-08-19T23:03:48;99656.44;;;22.22;66.54
49585;BME280;35491;49.142;9.210;2022-08-19T23:04:52;99664.56;;;22.10;67.85
49585;BME280;35491;49.142;9.210;2022-08-19T23:05:54;99652.94;;;22.03;67.99
49585;BME280;35491;49.142;9.210;2022-08-19T23:06:58;99666.75;;;22.02;67.96
49585;BME280;35491;49.142;9.210;2022-08-19T23:07:59;99659.69;;;22.01;67.87
49585;BME280;35491;49.142;9.210;2022-08-19T23:09:04;99659.69;;;22.01;67.38
49585;BME280;35491;49.142;9.210;2022-08-19T23:10:08;99650.91;;;21.99;67.57
49585;BME280;35491;49.142;9.210;2022-08-19T23:11:13;99660.13;;;21.97;67.66
49585;BME280;35491;49.142;9.210;2022-08-19T23:12:14;99656.00;;;21.95;67.75
49585;BME280;35491;49.142;9.210;2022-08-19T23:13:18;99655.75;;;21.96;67.36
49585;BME280;35491;49.142;9.210;2022-08-19T23:14:20;99652.22;;;21.96;67.50
49585;BME280;35491;49.142;9.210;2022-08-19T23:15:25;99655.13;;;21.94;67.62
49585;BME280;35491;49.142;9.210;2022-08-19T23:16:27;99647.81;;;21.95;67.55
49585;BME280;35491;49.142;9.210;2022-08-19T23:17:31;99648.88;;;21.94;67.18
49585;BME280;35491;49.142;9.210;2022-08-19T23:18:32;99649.69;;;21.94;67.23
49585;BME280;35491;49.142;9.210;2022-08-19T23:19:39;99650.31;;;21.96;67.34
49585;BME280;35491;49.142;9.210;2022-08-19T23:20:42;99643.81;;;21.97;66.95
49585;BME280;35491;49.142;9.210;2022-08-19T23:21:46;99645.47;;;21.99;67.03
49585;BME280;35491;49.142;9.210;2022-08-19T23:22:48;99649.00;;;21.99;66.85
49585;BME280;35491;49.142;9.210;2022-08-19T23:23:52;99647.94;;;22.00;66.83
49585;BME280;35491;49.142;9.210;2022-08-19T23:24:53;99642.97;;;21.97;66.86
49585;BME280;35491;49.142;9.210;2022-08-19T23:25:57;99644.88;;;21.96;66.43
49585;BME280;35491;49.142;9.210;2022-08-19T23:26:59;99646.16;;;21.94;66.02
49585;BME280;35491;49.142;9.210;2022-08-19T23:28:15;99656.34;;;21.99;66.00
49585;BME280;35491;49.142;9.210;2022-08-19T23:29:31;99652.34;;;22.01;65.67
49585;BME280;35491;49.142;9.210;2022-08-19T23:30:48;99652.34;;;22.01;65.15
49585;BME280;35491;49.142;9.210;2022-08-19T23:31:52;99653.75;;;22.04;65.20
49585;BME280;35491;49.142;9.210;2022-08-19T23:32:53;99651.88;;;22.04;65.02
49585;BME280;35491;49.142;9.210;2022-08-19T23:33:57;99652.47;;;22.06;64.72
49585;BME280;35491;49.142;9.210;2022-08-19T23:35:02;99656.03;;;22.07;63.87
49585;BME280;35491;49.142;9.210;2022-08-19T23:36:08;99652.09;;;22.03;63.49
49585;BME280;35491;49.142;9.210;2022-08-19T23:37:11;99651.03;;;22.04;63.63
49585;BME280;35491;49.142;9.210;2022-08-19T23:38:16;99656.97;;;22.01;63.62
49585;BME280;35491;49.142;9.210;2022-08-19T23:39:18;99655.88;;;22.02;63.34
49585;BME280;35491;49.142;9.210;2022-08-19T23:40:22;99659.69;;;22.01;63.03
49585;BME280;35491;49.142;9.210;2022-08-19T23:41:23;99650.91;;;21.99;62.67
49585;BME280;35491;49.142;9.210;2022-08-19T23:42:28;99658.72;;;21.95;62.96
49585;BME280;35491;49.142;9.210;2022-08-19T23:43:29;99656.44;;;21.92;62.96
49585;BME280;35491;49.142;9.210;2022-08-19T23:44:33;99657.72;;;21.89;61.83
49585;BME280;35491;49.142;9.210;2022-08-19T23:45:36;99656.44;;;21.92;61.68
49585;BME280;35491;49.142;9.210;2022-08-19T23:46:41;99653.94;;;21.90;61.88
49585;BME280;35491;49.142;9.210;2022-08-19T23:47:42;99662.81;;;21.86;61.43
49585;BME280;35491;49.142;9.210;2022-08-19T23:48:47;99653.59;;;21.87;61.80
49585;BME280;35491;49.142;9.210;2022-08-19T23:49:48;99656.31;;;21.87;61.45
49585;BME280;35491;49.142;9.210;2022-08-19T23:50:55;99649.78;;;21.88;60.71
49585;BME280;35491;49.142;9.210;2022-08-19T23:51:57;99659.41;;;21.90;61.06
49585;BME280;35491;49.142;9.210;2022-08-19T23:53:01;99657.72;;;21.89;60.98
49585;BME280;35491;49.142;9.210;2022-08-19T23:54:02;99655.22;;;21.88;59.83
49585;BME280;35491;49.142;9.210;2022-08-19T23:55:07;99659.41;;;21.90;60.14
49585;BME280;35491;49.142;9.210;2022-08-19T23:56:08;99657.25;;;21.92;59.93
49585;BME280;35491;49.142;9.210;2022-08-19T23:57:12;99657.38;;;21.86;58.85
49585;BME280;35491;49.142;9.210;2022-08-19T23:58:14;99655.22;;;21.88;59.08
49585;BME280;35491;49.142;9.210;2022-08-19T23:59:18;99661.94;;;21.85;58.84
